This is the latest recevied weather packets stored in our database for station/object KF4ERV-4. If no packets are shown the sender has not sent any weather packets the latest 10 day(s).
| Time | Temp. | Humidity | Pressure | Rain* | Wind** | Luminosity | Snow |
|---|---|---|---|---|---|---|---|
| 1787548179 | 18.89° C | 42% | 1016.9 hPa | 0 mm | - | - | - |
| 1787547696 | 19.44° C | 40% | 1017 hPa | 0 mm | - | - | - |
| 1787547573 | 19.44° C | 40% | 1017 hPa | 0 mm | - | - | - |
| 1787547405 | 19.44° C | 49% | 1016.9 hPa | 0 mm | - | - | - |
| 1787547275 | 19.44° C | 49% | 1016.9 hPa | 0 mm | - | - | - |
| 1787547114 | 19.44° C | 54% | 1017.1 hPa | 0 mm | - | - | - |
| 1787546826 | 19.44° C | 59% | 1016.9 hPa | 0 mm | - | - | - |
| 1787546670 | 19.44° C | 59% | 1016.9 hPa | 0 mm | - | - | - |
| 1787546534 | 19.44° C | 61% | 1017 hPa | 0 mm | - | - | - |
| 1787546371 | 19.44° C | 61% | 1017 hPa | 0 mm | - | - | - |
| 1787546245 | 19.44° C | 63% | 1017 hPa | 0 mm | - | - | - |
| 1787546079 | 19.44° C | 63% | 1017 hPa | 0 mm | - | - | - |
| 1787545956 | 20° C | 64% | 1017 hPa | 0 mm | - | - | - |
| 1787545766 | 20° C | 64% | 1017 hPa | 0 mm | - | - | - |
| 1787545664 | 20° C | 66% | 1016.9 hPa | 0 mm | - | - | - |
| 1787545469 | 20° C | 66% | 1016.9 hPa | 0 mm | - | - | - |
| 1787545376 | 20° C | 68% | 1016.9 hPa | 0 mm | - | - | - |
| 1787544879 | 20° C | 69% | 1017 hPa | 0 mm | - | - | - |
| 1787544797 | 20° C | 70% | 1017 hPa | 0 mm | - | - | - |
| 1787544569 | 20° C | 70% | 1017 hPa | 0 mm | - | - | - |
| 1787544278 | 20.56° C | 71% | 1017.1 hPa | 0 mm | - | - | - |
| 1787544086 | 22.22° C | 64% | 1016.1 hPa | 0 mm | - | - | - |
| 1787543976 | 20.56° C | 72% | 1017 hPa | 0 mm | - | - | - |
| 1787543927 | 20.56° C | 72% | 1017.2 hPa | 0 mm | - | - | - |
| 1787543665 | 20.56° C | 72% | 1017.2 hPa | 0 mm | - | - | - |
* Rain latest hour (hover to see other rain measurements)
** Current wind speed in m/s (hover to see current wind gust speed)